Coahoma, Texas
Current Conditions -  °F | °C
As of 7:35 AM on Friday 24 Oct 2014 (Local Time) from KBPG Reporting Station
Overcast Overcast  
Wind Chill: 60°   Ceiling: 100
Heat Index: 60°   Visibility: 0.25mi
Dew Point: 58°   Wind: 3mph
Humidity: 94%   Direction: 150°SSE
Pressure: 30.18"   Gusts: NA
Location:  32.3°N, 101.31°W
Report Text: KBPG 241235Z AUTO 15003KT 1/4SM OVC001 16/15 A3018 RMK AO2 T01560146
Loading
Personal Weather Stations






























Interactive Weather Map
Tropical Storm Tracking
New forecast layout! Learn more

10-Day Weather Forecast

Advertisements
Track Severe Weather on mobile